Time;durP1;ratioP1;P1;durP2;ratioP2;P2;SDS_P1;SDS_P2;PMS_P1;PMS_P2;Temp;Humidity;BMP_temperature;BMP_pressure;BME280_temperature;BME280_humidity;BME280_pressure;Samples;Min_cycle;Max_cycle;Signal;HPM_P1;HPM_P2
2022/03/24 00:01:06;;;;;;;30.55;22.60;;;6.80;1.00;;;;;;4956017;28;20237;-81
2022/03/24 00:03:33;;;;;;;31.08;23.50;;;6.80;1.00;;;;;;4959820;28;20328;-81
2022/03/24 00:05:59;;;;;;;32.92;24.77;;;6.80;1.00;;;;;;4953256;28;20264;-80
2022/03/24 00:08:28;;;;;;;30.55;22.50;;;6.70;1.00;;;;;;4970473;28;21467;-79
2022/03/24 00:10:55;;;;;;;32.13;23.17;;;6.70;1.00;;;;;;4966687;28;21211;-79
2022/03/24 00:13:27;;;;;;;34.53;23.58;;;6.70;1.00;;;;;;4958736;28;20284;-79
2022/03/24 00:15:54;;;;;;;33.95;24.88;;;6.60;1.00;;;;;;4959516;28;20236;-78
2022/03/24 00:18:20;;;;;;;33.72;24.30;;;6.60;1.00;;;;;;4951324;28;20249;-80
2022/03/24 00:20:47;;;;;;;35.53;23.33;;;6.60;1.00;;;;;;4956101;28;20237;-80
2022/03/24 00:23:17;;;;;;;33.05;24.85;;;6.50;1.00;;;;;;4959166;28;20442;-79
2022/03/24 00:25:49;;;;;;;41.65;24.30;;;6.40;1.00;;;;;;4958736;28;20256;-80
2022/03/24 00:28:18;;;;;;;32.78;23.23;;;6.40;1.00;;;;;;4961502;28;20225;-81
2022/03/24 00:30:46;;;;;;;28.98;22.55;;;6.40;1.00;;;;;;4955368;28;20240;-80
2022/03/24 00:33:17;;;;;;;31.25;23.30;;;6.40;1.00;;;;;;4952396;28;20329;-79
2022/03/24 00:35:50;;;;;;;35.15;25.65;;;6.30;1.00;;;;;;4951668;28;20233;-79
2022/03/24 00:38:22;;;;;;;33.47;24.88;;;6.30;1.00;;;;;;4953930;28;20237;-80
2022/03/24 00:40:49;;;;;;;32.83;24.38;;;6.20;1.00;;;;;;4946860;28;20285;-78
2022/03/24 00:43:18;;;;;;;32.78;25.02;;;6.20;1.00;;;;;;4949469;28;20248;-79
2022/03/24 00:45:50;;;;;;;33.60;23.25;;;6.10;1.00;;;;;;4952346;28;20240;-80
2022/03/24 00:48:17;;;;;;;30.05;23.55;;;6.20;1.00;;;;;;4960092;28;20895;-79
2022/03/24 00:50:47;;;;;;;37.00;25.48;;;6.10;1.00;;;;;;4952847;28;20229;-79
2022/03/24 00:53:15;;;;;;;32.30;25.25;;;6.20;1.00;;;;;;4952073;28;20237;-79
2022/03/24 00:55:48;;;;;;;37.13;24.20;;;6.10;1.00;;;;;;4957711;28;20237;-79
2022/03/24 00:58:15;;;;;;;31.50;23.90;;;6.10;1.00;;;;;;4958562;28;20233;-80
2022/03/24 01:00:46;;;;;;;29.95;21.70;;;6.10;1.00;;;;;;4966593;28;20246;-78
2022/03/24 01:03:14;;;;;;;29.17;22.15;;;6.10;1.00;;;;;;4962771;28;20367;-79
2022/03/24 01:05:41;;;;;;;32.70;23.35;;;6.00;1.00;;;;;;4957041;28;20267;-79
2022/03/24 01:08:09;;;;;;;29.50;22.15;;;6.00;1.00;;;;;;4959157;28;20236;-80
2022/03/24 01:10:38;;;;;;;34.28;25.42;;;6.00;1.00;;;;;;4956477;28;20287;-78
2022/03/24 01:13:11;;;;;;;34.42;22.77;;;5.90;1.00;;;;;;4953642;28;20324;-80
2022/03/24 01:15:38;;;;;;;33.85;24.73;;;5.90;1.00;;;;;;4954187;28;20233;-78
2022/03/24 01:18:07;;;;;;;31.88;23.95;;;5.90;1.00;;;;;;4961075;28;20677;-79
2022/03/24 01:20:35;;;;;;;31.85;23.30;;;5.90;1.00;;;;;;4968430;28;20236;-78
2022/03/24 01:23:03;;;;;;;28.35;22.05;;;5.80;1.00;;;;;;4970836;28;20216;-79
2022/03/24 01:25:29;;;;;;;35.88;26.20;;;5.80;1.00;;;;;;4973962;28;20263;-79
2022/03/24 01:27:58;;;;;;;35.55;24.23;;;5.70;1.00;;;;;;4978065;28;20229;-79
2022/03/24 01:30:29;;;;;;;33.40;24.42;;;5.70;1.00;;;;;;4974873;28;20431;-77
2022/03/24 01:32:58;;;;;;;33.22;22.75;;;5.70;1.00;;;;;;4973950;28;20245;-78
2022/03/24 01:35:30;;;;;;;30.15;22.48;;;5.70;1.00;;;;;;4970088;28;20248;-78
2022/03/24 01:38:00;;;;;;;32.40;24.02;;;5.70;1.00;;;;;;4971848;28;20209;-80
2022/03/24 01:40:27;;;;;;;31.85;23.77;;;5.60;1.00;;;;;;4975414;28;20233;-78
2022/03/24 01:42:58;;;;;;;31.88;24.02;;;5.60;1.00;;;;;;4971592;28;20253;-78
2022/03/24 01:45:30;;;;;;;32.92;23.65;;;5.60;1.00;;;;;;4975318;28;20249;-79
2022/03/24 01:47:56;;;;;;;35.65;24.52;;;5.60;1.00;;;;;;4972245;28;20216;-77
2022/03/24 01:50:28;;;;;;;32.13;24.08;;;5.60;1.00;;;;;;4971349;28;20229;-78
2022/03/24 01:52:55;;;;;;;29.27;23.73;;;5.60;1.00;;;;;;4972360;28;20213;-77
2022/03/24 01:55:32;;;;;;;37.72;26.27;;;5.50;1.00;;;;;;4967578;28;20236;-78
2022/03/24 01:57:58;;;;;;;33.70;24.67;;;5.50;1.00;;;;;;4963382;28;20228;-79
2022/03/24 02:00:29;;;;;;;33.53;26.15;;;5.50;1.00;;;;;;4971421;28;20276;-79
2022/03/24 02:02:58;;;;;;;37.63;25.23;;;5.40;1.00;;;;;;4964377;28;20459;-79
2022/03/24 02:05:30;;;;;;;35.03;24.83;;;5.40;1.00;;;;;;4968432;28;20285;-78
2022/03/24 02:07:58;;;;;;;39.38;28.65;;;5.40;1.00;;;;;;4979587;28;20217;-78
2022/03/24 02:10:30;;;;;;;35.20;27.20;;;5.40;1.00;;;;;;4974603;28;20229;-78
2022/03/24 02:12:58;;;;;;;32.88;25.10;;;5.30;1.00;;;;;;4971488;28;20224;-79
2022/03/24 02:15:28;;;;;;;37.53;25.73;;;5.30;1.00;;;;;;4973171;28;20217;-79
2022/03/24 02:17:55;;;;;;;35.95;26.10;;;5.30;1.00;;;;;;4973755;28;20229;-80
2022/03/24 02:20:33;;;;;;;31.85;25.13;;;5.20;1.00;;;;;;4971375;28;20264;-79
2022/03/24 02:23:09;;;;;;;35.63;26.20;;;5.20;1.00;;;;;;4973859;28;20244;-79
2022/03/24 02:25:40;;;;;;;39.95;26.77;;;5.10;1.00;;;;;;4972457;28;20239;-78
2022/03/24 02:28:06;;;;;;;36.80;25.27;;;5.10;1.00;;;;;;4971992;28;20298;-78
2022/03/24 02:30:35;;;;;;;31.70;24.17;;;5.10;1.00;;;;;;4970040;28;20221;-78
2022/03/24 02:33:03;;;;;;;34.10;26.23;;;5.10;1.00;;;;;;4963313;28;20256;-80
2022/03/24 02:35:30;;;;;;;37.22;26.88;;;5.10;1.00;;;;;;4967803;28;20229;-79
2022/03/24 02:37:56;;;;;;;37.45;28.35;;;5.10;1.00;;;;;;4967624;28;20233;-79
2022/03/24 02:40:28;;;;;;;35.30;25.60;;;5.10;1.00;;;;;;4967521;28;20236;-79
2022/03/24 02:42:56;;;;;;;38.83;27.95;;;5.10;1.00;;;;;;4966375;28;20299;-78
2022/03/24 02:45:28;;;;;;;33.80;24.60;;;5.00;1.00;;;;;;4963885;28;20256;-79
2022/03/24 02:47:55;;;;;;;36.50;26.30;;;5.00;1.00;;;;;;4963892;28;20242;-79
2022/03/24 02:50:23;;;;;;;33.70;25.15;;;4.90;1.00;;;;;;4966539;28;20337;-79
2022/03/24 02:52:50;;;;;;;35.78;25.65;;;4.90;1.00;;;;;;4954645;28;20240;-78
2022/03/24 02:55:16;;;;;;;41.70;27.25;;;4.80;1.00;;;;;;4962062;28;20281;-78
2022/03/24 02:57:48;;;;;;;38.00;27.25;;;4.80;1.00;;;;;;4960338;28;20266;-79
2022/03/24 03:00:16;;;;;;;35.17;26.13;;;4.70;1.00;;;;;;4963809;28;20234;-78
2022/03/24 03:02:45;;;;;;;32.42;25.35;;;4.70;1.00;;;;;;4958455;28;20308;-78
2022/03/24 03:05:11;;;;;;;36.22;25.92;;;4.70;1.00;;;;;;4958136;28;20264;-78
2022/03/24 03:07:38;;;;;;;35.08;26.25;;;4.70;1.00;;;;;;4957591;28;20360;-78
2022/03/24 03:10:08;;;;;;;33.72;25.35;;;4.60;1.00;;;;;;4953875;28;20253;-78
2022/03/24 03:12:35;;;;;;;38.67;27.42;;;4.60;1.00;;;;;;4954485;28;20232;-78
2022/03/24 03:15:08;;;;;;;32.30;26.25;;;4.50;1.00;;;;;;4948148;28;20241;-79
2022/03/24 03:17:35;;;;;;;35.60;25.58;;;4.50;1.00;;;;;;4946330;28;21013;-79
2022/03/24 03:20:10;;;;;;;36.88;25.80;;;4.50;1.00;;;;;;4945998;28;20760;-78
2022/03/24 03:22:37;;;;;;;40.92;28.52;;;4.40;1.00;;;;;;4946154;28;20351;-79
2022/03/24 03:25:14;;;;;;;36.03;24.48;;;4.40;1.00;;;;;;4948286;28;20272;-77
2022/03/24 03:27:40;;;;;;;35.97;26.27;;;4.30;1.00;;;;;;4944520;28;20242;-79
2022/03/24 03:30:10;;;;;;;35.58;26.83;;;4.30;1.00;;;;;;4941294;28;20363;-79
2022/03/24 03:32:38;;;;;;;36.65;27.30;;;4.30;1.00;;;;;;4951330;28;22059;-79
2022/03/24 03:35:08;;;;;;;38.72;25.65;;;4.30;1.00;;;;;;4948048;28;20256;-80
2022/03/24 03:37:39;;;;;;;36.80;25.17;;;4.30;1.00;;;;;;4950676;28;20343;-78
2022/03/24 03:40:08;;;;;;;35.85;26.48;;;4.20;1.00;;;;;;4946011;28;20249;-78
2022/03/24 03:42:38;;;;;;;38.15;25.75;;;4.20;1.00;;;;;;4954355;28;21759;-79
2022/03/24 03:45:19;;;;;;;34.22;24.92;;;4.20;1.00;;;;;;4949702;28;20317;-78
2022/03/24 03:47:49;;;;;;;33.33;24.52;;;4.20;1.00;;;;;;4963729;28;20241;-79
2022/03/24 03:50:19;;;;;;;40.60;27.13;;;4.20;1.00;;;;;;4955777;28;20272;-79
2022/03/24 03:52:50;;;;;;;37.35;28.10;;;4.10;1.00;;;;;;4949877;28;20284;-78
2022/03/24 03:55:19;;;;;;;39.90;28.35;;;4.10;1.00;;;;;;4952377;28;20235;-80
2022/03/24 03:57:48;;;;;;;36.10;26.17;;;4.10;1.00;;;;;;4948687;28;20225;-79
2022/03/24 04:03:03;;;;;;;40.72;28.77;;;4.00;1.00;;;;;;4949819;28;20229;-78
2022/03/24 04:05:31;;;;;;;42.20;28.80;;;4.00;1.00;;;;;;4952231;28;20418;-78
2022/03/24 04:07:58;;;;;;;42.88;31.05;;;4.00;1.00;;;;;;4952378;28;20239;-79
2022/03/24 04:10:30;;;;;;;42.10;30.70;;;3.90;1.00;;;;;;4960168;28;20276;-78
2022/03/24 04:12:57;;;;;;;42.78;29.67;;;3.90;1.00;;;;;;4958303;28;20269;-78
2022/03/24 04:15:29;;;;;;;39.35;28.88;;;3.90;1.00;;;;;;4953644;28;20237;-77
2022/03/24 04:17:56;;;;;;;38.22;27.58;;;3.90;1.00;;;;;;4953380;28;20249;-78
2022/03/24 04:20:23;;;;;;;40.47;30.25;;;3.80;1.00;;;;;;4952480;28;20233;-79
2022/03/24 04:22:51;;;;;;;41.30;29.55;;;3.80;1.00;;;;;;4951045;28;20348;-78
2022/03/24 04:25:18;;;;;;;46.53;30.15;;;3.80;1.00;;;;;;4950015;28;20237;-78
2022/03/24 04:27:49;;;;;;;42.22;30.10;;;3.80;1.00;;;;;;4952594;28;20225;-78
2022/03/24 04:30:16;;;;;;;42.72;29.98;;;3.80;1.00;;;;;;4949246;28;20241;-77
2022/03/24 04:32:50;;;;;;;43.22;29.50;;;3.70;1.00;;;;;;4944643;28;20384;-79
2022/03/24 04:35:17;;;;;;;38.50;29.60;;;3.70;1.00;;;;;;4952358;28;20236;-79
2022/03/24 04:37:49;;;;;;;40.53;31.00;;;3.70;1.00;;;;;;4951084;28;20232;-79
2022/03/24 04:40:17;;;;;;;55.20;31.48;;;3.70;1.00;;;;;;4951418;28;20240;-79
2022/03/24 04:42:49;;;;;;;41.30;30.48;;;3.70;1.00;;;;;;4955878;28;20257;-79
2022/03/24 04:45:19;;;;;;;50.60;32.45;;;3.60;1.00;;;;;;4948003;28;20265;-79
2022/03/24 04:47:50;;;;;;;41.42;32.20;;;3.60;1.00;;;;;;4950775;28;20835;-78
2022/03/24 04:50:18;;;;;;;50.00;32.65;;;3.60;1.00;;;;;;4951468;28;20340;-78
2022/03/24 04:52:49;;;;;;;53.38;33.65;;;3.60;1.00;;;;;;4955737;28;20233;-78
2022/03/24 04:55:18;;;;;;;44.00;31.65;;;3.60;1.00;;;;;;4951441;28;20229;-79
2022/03/24 04:57:47;;;;;;;47.78;31.25;;;3.60;1.00;;;;;;4951513;28;20233;-80
2022/03/24 05:00:19;;;;;;;48.70;33.05;;;3.50;1.00;;;;;;4944388;28;20241;-79
2022/03/24 05:02:48;;;;;;;43.15;30.55;;;3.50;1.00;;;;;;4938432;28;21009;-79
2022/03/24 05:05:21;;;;;;;44.60;32.20;;;3.40;1.00;;;;;;4952781;28;20241;-79
2022/03/24 05:07:49;;;;;;;50.38;31.27;;;3.40;1.00;;;;;;4958077;28;20340;-79
2022/03/24 05:10:16;;;;;;;54.42;34.00;;;3.40;1.00;;;;;;4957166;28;20291;-79
2022/03/24 05:12:45;;;;;;;48.63;34.90;;;3.40;1.00;;;;;;4955382;28;20237;-78
2022/03/24 05:15:14;;;;;;;54.30;37.03;;;3.40;1.00;;;;;;4952157;28;20296;-78
2022/03/24 05:17:47;;;;;;;42.58;31.77;;;3.40;1.00;;;;;;4948299;28;20845;-79
2022/03/24 05:20:17;;;;;;;46.10;32.72;;;3.50;1.00;;;;;;4948644;28;20249;-79
2022/03/24 05:22:48;;;;;;;52.47;36.58;;;3.50;1.00;;;;;;4946035;28;20236;-78
2022/03/24 05:25:15;;;;;;;49.15;34.30;;;3.50;1.00;;;;;;4957185;28;20317;-77
2022/03/24 05:27:43;;;;;;;57.75;37.95;;;3.50;1.00;;;;;;4961546;28;20228;-79
2022/03/24 05:30:14;;;;;;;44.40;30.98;;;3.50;1.00;;;;;;4960789;28;20233;-80
2022/03/24 05:32:41;;;;;;;48.65;34.90;;;3.50;1.00;;;;;;4952385;28;20237;-79
2022/03/24 05:35:09;;;;;;;53.30;34.28;;;3.50;1.00;;;;;;4949705;28;20226;-78
2022/03/24 05:37:37;;;;;;;47.92;34.85;;;3.60;1.00;;;;;;4948222;28;20225;-79
2022/03/24 05:40:13;;;;;;;48.90;35.67;;;3.60;1.00;;;;;;4952158;28;20249;-79
2022/03/24 05:42:40;;;;;;;49.90;33.80;;;3.70;1.00;;;;;;4947509;28;20260;-79
2022/03/24 05:45:09;;;;;;;51.20;33.90;;;3.80;1.00;;;;;;4945813;28;20249;-80
2022/03/24 05:47:36;;;;;;;46.00;32.85;;;3.80;1.00;;;;;;4952935;28;20238;-78
2022/03/24 05:50:09;;;;;;;49.03;34.95;;;3.90;1.00;;;;;;4951552;28;20569;-79
2022/03/24 05:52:37;;;;;;;49.83;34.50;;;3.90;1.00;;;;;;4956675;28;20307;-79
2022/03/24 05:55:09;;;;;;;48.20;35.08;;;4.00;1.00;;;;;;4953359;28;20295;-79
2022/03/24 05:57:35;;;;;;;48.60;33.20;;;4.10;1.00;;;;;;4943922;28;20265;-79
2022/03/24 06:00:06;;;;;;;46.45;34.00;;;4.20;1.00;;;;;;4949762;28;20304;-78
2022/03/24 06:02:35;;;;;;;56.03;36.00;;;4.20;1.00;;;;;;4948734;28;20237;-79
2022/03/24 06:05:04;;;;;;;50.78;35.08;;;4.30;1.00;;;;;;4950322;28;20229;-80
2022/03/24 06:07:33;;;;;;;51.40;36.58;;;4.40;1.00;;;;;;4946988;28;20277;-79
2022/03/24 06:10:02;;;;;;;53.38;34.55;;;4.50;1.00;;;;;;4947032;28;20534;-77
2022/03/24 06:12:31;;;;;;;52.63;37.25;;;4.60;1.00;;;;;;4952673;28;20260;-77
2022/03/24 06:14:59;;;;;;;52.60;36.72;;;4.60;1.00;;;;;;4953933;28;20225;-76
2022/03/24 06:17:28;;;;;;;46.10;35.90;;;4.80;1.00;;;;;;4947720;28;20288;-77
2022/03/24 06:20:01;;;;;;;49.65;35.75;;;4.90;1.00;;;;;;4946082;28;20233;-77
2022/03/24 06:22:31;;;;;;;54.17;37.92;;;4.90;1.00;;;;;;4945906;28;20238;-76
2022/03/24 06:24:58;;;;;;;51.28;36.55;;;5.00;1.00;;;;;;4947789;28;20213;-76
2022/03/24 06:27:30;;;;;;;53.55;36.80;;;5.20;1.00;;;;;;4938559;28;20225;-76
2022/03/24 06:29:57;;;;;;;53.67;40.63;;;5.20;1.00;;;;;;4952804;28;20233;-76
2022/03/24 06:32:29;;;;;;;58.22;40.10;;;5.30;1.00;;;;;;4946111;28;20245;-78
2022/03/24 06:34:55;;;;;;;54.25;40.85;;;5.40;1.00;;;;;;4942448;28;20332;-78
2022/03/24 06:37:22;;;;;;;48.40;34.70;;;5.50;1.00;;;;;;4946173;28;20237;-78
2022/03/24 06:39:49;;;;;;;49.63;35.42;;;5.60;1.00;;;;;;4948680;28;20273;-78
2022/03/24 06:42:16;;;;;;;54.07;41.30;;;5.80;1.00;;;;;;4944246;28;21151;-76
2022/03/24 06:44:49;;;;;;;48.72;36.97;;;5.90;1.00;;;;;;4943407;28;20560;-76
2022/03/24 06:47:15;;;;;;;55.92;37.80;;;6.00;1.00;;;;;;4947582;28;20247;-76
2022/03/24 06:49:42;;;;;;;58.60;38.45;;;6.20;1.00;;;;;;4951003;28;20331;-76
2022/03/24 06:52:10;;;;;;;51.30;37.85;;;6.30;1.00;;;;;;4942590;28;20300;-79
2022/03/24 06:54:36;;;;;;;46.28;35.42;;;6.50;1.00;;;;;;4950678;28;20260;-78
2022/03/24 06:57:05;;;;;;;50.40;36.05;;;6.60;1.00;;;;;;4955656;28;20245;-78
2022/03/24 06:59:32;;;;;;;49.20;35.60;;;6.70;1.00;;;;;;4946403;28;20239;-78
2022/03/24 07:02:02;;;;;;;51.83;36.28;;;6.80;1.00;;;;;;4938423;28;20287;-77
2022/03/24 07:04:29;;;;;;;48.17;34.70;;;6.90;1.00;;;;;;4949182;28;20263;-79
2022/03/24 07:06:59;;;;;;;46.20;35.25;;;7.10;1.00;;;;;;4956572;28;20273;-78
2022/03/24 07:09:29;;;;;;;52.08;36.55;;;7.10;1.00;;;;;;4952712;28;20229;-78
2022/03/24 07:11:55;;;;;;;47.13;34.22;;;7.30;1.00;;;;;;4953743;28;20482;-78
2022/03/24 07:14:22;;;;;;;41.88;34.13;;;7.40;1.00;;;;;;4952463;28;20241;-79
2022/03/24 07:16:52;;;;;;;48.53;34.45;;;7.50;1.00;;;;;;4962943;28;20602;-78
2022/03/24 07:19:23;;;;;;;50.80;36.80;;;7.60;1.00;;;;;;4970501;28;20221;-79
2022/03/24 07:21:50;;;;;;;49.15;36.38;;;7.70;1.00;;;;;;4964822;28;20236;-78
2022/03/24 07:24:20;;;;;;;53.05;36.25;;;7.90;1.00;;;;;;4952223;28;20260;-80
2022/03/24 07:26:49;;;;;;;43.30;33.67;;;8.10;1.00;;;;;;4961749;28;20251;-79
2022/03/24 07:29:19;;;;;;;38.33;32.60;;;8.20;1.00;;;;;;4958009;28;20260;-79
2022/03/24 07:31:50;;;;;;;41.40;33.17;;;8.30;1.00;;;;;;4960480;28;20697;-80
2022/03/24 07:34:19;;;;;;;48.60;35.65;;;8.50;1.00;;;;;;4949565;28;20300;-78
2022/03/24 07:36:51;;;;;;;40.58;33.92;;;8.60;1.00;;;;;;4950588;28;21484;-79
2022/03/24 07:39:19;;;;;;;46.53;36.83;;;8.70;1.00;;;;;;4943490;28;20260;-79
2022/03/24 07:41:49;;;;;;;46.03;34.43;;;8.80;1.00;;;;;;4953376;28;20266;-78
2022/03/24 07:44:19;;;;;;;42.08;32.05;;;8.90;1.00;;;;;;4948662;28;20437;-79
2022/03/24 07:46:49;;;;;;;40.10;32.87;;;8.90;1.00;;;;;;4940720;28;20210;-78
2022/03/24 07:49:15;;;;;;;44.63;32.90;;;9.10;1.00;;;;;;4946090;28;20545;-78
2022/03/24 07:51:43;;;;;;;42.88;34.30;;;9.20;1.00;;;;;;4945392;28;20457;-79
2022/03/24 07:54:12;;;;;;;39.80;32.60;;;9.30;1.00;;;;;;4947272;28;20337;-79
2022/03/24 07:56:39;;;;;;;39.93;32.10;;;9.50;1.00;;;;;;4951838;28;20457;-80
2022/03/24 07:59:09;;;;;;;45.50;33.13;;;9.70;1.00;;;;;;4946515;28;20425;-79
2022/03/24 08:01:37;;;;;;;39.57;32.30;;;9.90;1.00;;;;;;4953158;28;20446;-79
2022/03/24 08:04:09;;;;;;;45.37;33.10;;;10.10;1.00;;;;;;4952285;28;21456;-79
2022/03/24 08:06:36;;;;;;;42.27;33.57;;;10.20;1.00;;;;;;4948143;28;20621;-79
2022/03/24 08:09:08;;;;;;;43.93;33.47;;;10.30;1.00;;;;;;4942567;28;20452;-80
2022/03/24 08:11:36;;;;;;;46.23;33.00;;;10.50;1.00;;;;;;4941191;28;20429;-77
2022/03/24 08:14:02;;;;;;;44.00;33.47;;;10.70;1.00;;;;;;4937491;28;20445;-78
2022/03/24 08:16:30;;;;;;;43.33;34.03;;;10.80;1.00;;;;;;4933776;28;20418;-78
2022/03/24 08:18:57;;;;;;;40.43;33.93;;;10.80;1.00;;;;;;4940195;28;21009;-78
2022/03/24 08:21:28;;;;;;;45.93;33.13;;;10.90;1.00;;;;;;4947821;28;20462;-78
2022/03/24 08:23:55;;;;;;;41.07;34.27;;;11.00;1.00;;;;;;4946363;28;20488;-78
2022/03/24 08:26:21;;;;;;;45.20;36.83;;;11.20;1.00;;;;;;4947238;28;20487;-77
2022/03/24 08:28:55;;;;;;;41.63;32.67;;;11.30;1.00;;;;;;4949401;28;20464;-77
2022/03/24 08:31:21;;;;;;;44.53;35.50;;;11.40;1.00;;;;;;4945759;28;20472;-77
2022/03/24 08:33:49;;;;;;;44.83;33.13;;;11.50;1.00;;;;;;4946729;28;20455;-78
2022/03/24 08:36:19;;;;;;;50.60;36.50;;;11.70;1.00;;;;;;4928253;28;20998;-78
2022/03/24 08:38:51;;;;;;;38.97;31.60;;;11.80;1.00;;;;;;4944833;28;20462;-77
2022/03/24 08:41:17;;;;;;;38.50;33.13;;;12.00;1.00;;;;;;4939509;28;20562;-78
2022/03/24 08:43:44;;;;;;;38.87;31.60;;;12.00;1.00;;;;;;4931571;28;20482;-76
2022/03/24 08:46:12;;;;;;;50.63;36.80;;;12.00;1.00;;;;;;4941226;28;20572;-77
2022/03/24 08:48:38;;;;;;;46.70;34.70;;;12.10;1.00;;;;;;4942622;28;20505;-76
2022/03/24 08:51:09;;;;;;;43.37;34.33;;;12.30;1.00;;;;;;4941392;28;20426;-76
2022/03/24 08:53:36;;;;;;;41.40;31.97;;;12.40;1.00;;;;;;4939964;28;20462;-77
2022/03/24 08:56:10;;;;;;;40.10;32.50;;;12.60;1.00;;;;;;4928574;28;20576;-77
2022/03/24 08:58:36;;;;;;;41.07;32.30;;;12.80;1.00;;;;;;4939757;28;20885;-80
2022/03/24 09:01:03;;;;;;;43.57;34.27;;;12.90;1.00;;;;;;4936883;28;20671;-80
2022/03/24 09:03:31;;;;;;;39.80;32.00;;;13.00;1.00;;;;;;4942888;28;20959;-78
2022/03/24 09:05:58;;;;;;;40.03;33.13;;;13.00;1.00;;;;;;4944383;28;21013;-78
2022/03/24 09:08:29;;;;;;;39.60;32.93;;;13.20;1.00;;;;;;4938743;28;20539;-77
2022/03/24 09:10:56;;;;;;;40.77;31.57;;;13.30;1.00;;;;;;4943655;28;20975;-78
2022/03/24 09:13:22;;;;;;;41.17;31.37;;;13.50;1.00;;;;;;4956354;28;20470;-76
2022/03/24 09:15:50;;;;;;;43.70;34.00;;;13.60;1.00;;;;;;4946571;28;20410;-79
2022/03/24 09:18:17;;;;;;;41.03;32.50;;;13.90;1.00;;;;;;4944500;28;21642;-79
2022/03/24 09:20:49;;;;;;;38.93;30.63;;;14.00;1.00;;;;;;4954712;28;20473;-80
2022/03/24 09:23:16;;;;;;;38.73;32.53;;;14.40;1.00;;;;;;4960379;28;20529;-79
2022/03/24 09:25:43;;;;;;;39.77;31.53;;;15.60;1.00;;;;;;4957766;28;20418;-80
2022/03/24 09:28:10;;;;;;;38.90;32.63;;;17.30;1.00;;;;;;4955970;28;20445;-79
2022/03/24 09:30:37;;;;;;;44.63;32.53;;;18.90;1.00;;;;;;4932315;28;20492;-78
2022/03/24 09:33:08;;;;;;;37.30;32.73;;;20.10;1.00;;;;;;4948297;28;20485;-79
2022/03/24 09:35:35;;;;;;;36.70;31.73;;;21.00;1.00;;;;;;4928838;28;20473;-78
2022/03/24 09:38:03;;;;;;;38.27;32.53;;;21.90;1.00;;;;;;4927134;28;20520;-79
2022/03/24 09:40:30;;;;;;;39.70;33.07;;;22.70;1.00;;;;;;4932345;28;20446;-79
2022/03/24 09:42:58;;;;;;;38.13;32.50;;;23.30;1.00;;;;;;4945173;28;20487;-79
2022/03/24 09:45:29;;;;;;;33.43;29.50;;;23.70;1.00;;;;;;4944817;28;20462;-80
2022/03/24 09:47:56;;;;;;;36.03;32.13;;;24.50;1.00;;;;;;4946162;28;20476;-79
2022/03/24 09:50:28;;;;;;;39.20;30.80;;;24.60;1.00;;;;;;4942636;28;22152;-77
2022/03/24 09:52:56;;;;;;;37.00;30.83;;;25.00;1.00;;;;;;4933771;28;20489;-80
2022/03/24 09:55:30;;;;;;;34.77;29.43;;;25.30;1.00;;;;;;4941081;28;20457;-79
2022/03/24 09:57:58;;;;;;;31.87;28.40;;;26.00;1.00;;;;;;4945275;28;20468;-79
2022/03/24 10:00:36;;;;;;;31.50;28.07;;;26.50;1.00;;;;;;4947284;28;20468;-81
2022/03/24 10:03:15;;;;;;;31.87;28.37;;;27.00;1.00;;;;;;4947702;28;20495;-80
2022/03/24 10:05:56;;;;;;;31.97;28.57;;;26.70;1.00;;;;;;4949352;28;20467;-80
2022/03/24 10:08:28;;;;;;;30.07;26.87;;;26.70;1.00;;;;;;4944912;28;20502;-79
2022/03/24 10:11:00;;;;;;;29.37;26.57;;;26.90;1.00;;;;;;4939856;28;21386;-80
2022/03/24 10:13:53;;;;;;;31.97;28.47;;;27.20;1.00;;;;;;4952378;28;20425;-81
2022/03/24 10:16:43;;;;;;;30.07;26.67;;;27.60;1.00;;;;;;4946618;28;20470;-82
2022/03/24 10:19:14;;;;;;;34.40;30.10;;;28.10;1.00;;;;;;4948817;28;20469;-79
2022/03/24 10:21:43;;;;;;;30.60;27.60;;;28.00;1.00;;;;;;4954017;28;20452;-80
2022/03/24 10:24:13;;;;;;;30.57;27.37;;;28.30;1.00;;;;;;4948501;28;20409;-81
2022/03/24 10:26:43;;;;;;;29.17;26.00;;;28.70;1.00;;;;;;4958625;28;20469;-80
2022/03/24 10:29:11;;;;;;;30.77;27.30;;;28.50;1.00;;;;;;4965385;28;20497;-80
2022/03/24 10:31:41;;;;;;;28.00;24.97;;;28.30;1.00;;;;;;4967903;28;20473;-80
2022/03/24 10:34:11;;;;;;;31.20;27.80;;;27.50;1.00;;;;;;4941908;28;20544;-82
2022/03/24 10:36:41;;;;;;;28.90;24.90;;;27.60;1.00;;;;;;4943140;28;21235;-82
2022/03/24 10:39:09;;;;;;;27.20;24.07;;;27.90;1.00;;;;;;4945199;28;21443;-81
2022/03/24 10:41:40;;;;;;;28.07;25.07;;;28.10;1.00;;;;;;4947685;28;20441;-81
2022/03/24 10:44:10;;;;;;;26.00;23.20;;;28.00;1.00;;;;;;4951266;28;20507;-81
2022/03/24 10:46:41;;;;;;;27.37;22.37;;;28.20;1.00;;;;;;4950377;28;20477;-80
2022/03/24 10:49:23;;;;;;;28.23;21.57;;;28.70;1.00;;;;;;4958414;28;20480;-81
2022/03/24 10:51:52;;;;;;;26.97;24.07;;;28.90;1.00;;;;;;4964088;28;20414;-80
2022/03/24 10:54:28;;;;;;;26.40;23.10;;;28.80;1.00;;;;;;4957116;28;20425;-81
2022/03/24 10:57:01;;;;;;;25.37;22.67;;;28.90;1.00;;;;;;4955917;28;20441;-81
2022/03/24 10:59:37;;;;;;;26.60;23.90;;;29.50;1.00;;;;;;4949117;28;20442;-81
2022/03/24 11:02:12;;;;;;;25.27;22.77;;;30.30;1.00;;;;;;4946112;28;20508;-81
2022/03/24 11:04:38;;;;;;;24.33;21.77;;;31.20;1.00;;;;;;4952350;28;20521;-81
2022/03/24 11:07:10;;;;;;;24.67;20.43;;;31.50;1.00;;;;;;4948056;28;21500;-80
2022/03/24 11:09:37;;;;;;;22.60;20.30;;;31.50;1.00;;;;;;4950813;28;20449;-81
2022/03/24 11:12:27;;;;;;;21.27;19.07;;;31.90;1.00;;;;;;4937733;28;20465;-80
2022/03/24 11:14:56;;;;;;;22.60;19.67;;;31.90;1.00;;;;;;4946025;28;20453;-81
2022/03/24 11:17:30;;;;;;;20.40;18.20;;;31.40;1.00;;;;;;4946277;28;20457;-79
2022/03/24 11:20:05;;;;;;;20.93;18.73;;;30.90;1.00;;;;;;4950169;28;20480;-79
2022/03/24 11:22:49;;;;;;;19.77;17.40;;;30.20;1.00;;;;;;4942144;28;21042;-81
2022/03/24 11:25:17;;;;;;;20.67;18.50;;;30.10;1.00;;;;;;4945172;28;20464;-80
2022/03/24 11:27:45;;;;;;;19.50;17.40;;;30.40;1.00;;;;;;4942526;28;21052;-82
2022/03/24 11:30:15;;;;;;;20.30;18.10;;;30.30;1.00;;;;;;4944842;28;20506;-79
2022/03/24 11:32:49;;;;;;;20.70;16.90;;;31.00;1.00;;;;;;4939793;28;20481;-78
2022/03/24 11:35:17;;;;;;;17.83;15.50;;;31.70;1.00;;;;;;4940483;28;20528;-82
2022/03/24 11:37:51;;;;;;;19.90;16.27;;;31.80;1.00;;;;;;4945394;28;20581;-80
2022/03/24 11:40:19;;;;;;;18.80;14.93;;;31.70;1.00;;;;;;4937628;28;20468;-82
2022/03/24 11:42:54;;;;;;;16.83;14.20;;;31.40;1.00;;;;;;4941602;28;20410;-81
2022/03/24 11:45:34;;;;;;;16.27;14.60;;;31.80;1.00;;;;;;4942019;28;20477;-84
2022/03/24 11:48:11;;;;;;;18.47;14.27;;;32.40;1.00;;;;;;4947914;28;20453;-84
2022/03/24 11:50:42;;;;;;;19.40;14.43;;;33.10;1.00;;;;;;4946779;28;20473;-82
2022/03/24 11:53:14;;;;;;;16.17;13.40;;;33.60;1.00;;;;;;4946516;28;22058;-83
2022/03/24 11:56:10;;;;;;;14.30;12.87;;;34.00;1.00;;;;;;4950905;28;20465;-83
2022/03/24 11:58:40;;;;;;;18.70;15.63;;;34.50;1.00;;;;;;4945972;28;20454;-82
2022/03/24 12:01:32;;;;;;;18.17;15.10;;;34.70;1.00;;;;;;4940138;28;20426;-81
2022/03/24 12:04:14;;;;;;;16.67;13.50;;;34.90;1.00;;;;;;4950974;28;20476;-81
2022/03/24 12:06:54;;;;;;;14.70;13.17;;;34.80;1.00;;;;;;4944155;28;20525;-81
2022/03/24 12:09:25;;;;;;;14.37;12.87;;;35.10;1.00;;;;;;4951488;28;20540;-81
2022/03/24 12:11:53;;;;;;;17.13;14.70;;;35.10;1.00;;;;;;4947167;28;20480;-81
2022/03/24 12:14:22;;;;;;;16.77;13.80;;;35.20;1.00;;;;;;4947620;28;20476;-83
2022/03/24 12:16:53;;;;;;;15.77;13.73;;;35.50;1.00;;;;;;4950236;28;20485;-83
2022/03/24 12:19:40;;;;;;;17.80;13.57;;;34.80;1.00;;;;;;4948593;28;20485;-81
2022/03/24 12:22:51;;;;;;;15.53;13.80;;;34.10;1.00;;;;;;4942448;28;20658;-87
2022/03/24 12:25:34;;;;;;;13.50;11.90;;;33.90;1.00;;;;;;4948463;28;20430;-84
2022/03/24 12:28:09;;;;;;;16.70;13.63;;;33.80;1.00;;;;;;4949837;28;21047;-83
2022/03/24 12:31:05;;;;;;;14.10;12.60;;;34.30;1.00;;;;;;4954759;28;20498;-82
2022/03/24 12:33:40;;;;;;;19.30;17.40;;;35.00;1.00;;;;;;4951624;28;21944;-83
2022/03/24 12:36:15;;;;;;;16.07;13.27;;;35.60;1.00;;;;;;4947505;28;20429;-83
2022/03/24 12:38:55;;;;;;;16.30;14.10;;;36.30;1.00;;;;;;4956784;28;20596;-85
2022/03/24 12:41:32;;;;;;;15.63;12.70;;;36.50;1.00;;;;;;4947722;28;20500;-79
2022/03/24 12:44:01;;;;;;;14.20;12.57;;;36.90;1.00;;;;;;4945369;28;20466;-82
2022/03/24 12:46:35;;;;;;;15.97;13.20;;;35.60;1.00;;;;;;4944577;28;20554;-83
2022/03/24 12:49:30;;;;;;;18.30;16.50;;;35.40;1.00;;;;;;4948151;28;20509;-82
2022/03/24 12:52:01;;;;;;;17.93;14.97;;;36.20;1.00;;;;;;4950671;28;20435;-82
2022/03/24 12:54:50;;;;;;;15.87;14.03;;;35.70;1.00;;;;;;4953664;28;20456;-84
2022/03/24 12:57:30;;;;;;;17.33;15.40;;;36.30;1.00;;;;;;4949100;28;20460;-82
2022/03/24 12:59:58;;;;;;;16.57;14.40;;;36.70;1.00;;;;;;4949447;28;20449;-80
2022/03/24 13:02:31;;;;;;;15.50;13.93;;;37.20;1.00;;;;;;4942661;28;20415;-81